Time;durP1;ratioP1;P1;durP2;ratioP2;P2;SDS_P1;SDS_P2;PMS_P1;PMS_P2;Temp;Humidity;BMP_temperature;BMP_pressure;BME280_temperature;BME280_humidity;BME280_pressure;Samples;Min_cycle;Max_cycle;Signal;HPM_P1;HPM_P2
2021/08/31 00:01:25;;;;;;;2.08;1.92;;;15.80;73.30;;;15.56;58.46;94811.63;5073446;28;20619;-78
2021/08/31 00:03:52;;;;;;;2.72;2.30;;;15.90;73.30;;;15.56;59.26;94812.44;5056693;28;20685;-77
2021/08/31 00:06:20;;;;;;;2.55;2.35;;;15.80;73.30;;;15.50;59.68;94800.13;5073379;28;20227;-78
2021/08/31 00:08:47;;;;;;;3.90;2.40;;;15.80;73.60;;;15.54;59.72;94806.59;5074981;28;20195;-79
2021/08/31 00:11:14;;;;;;;2.38;2.17;;;15.80;73.50;;;15.52;58.92;94809.44;5056497;28;20703;-78
2021/08/31 00:13:41;;;;;;;2.90;2.17;;;15.80;73.40;;;15.48;58.63;94808.28;5056868;28;20317;-78
2021/08/31 00:16:08;;;;;;;4.72;2.15;;;15.70;73.20;;;15.44;58.92;94808.94;5055494;28;20228;-78
2021/08/31 00:18:36;;;;;;;2.55;2.20;;;15.70;73.10;;;15.41;58.78;94798.84;5055556;28;20426;-78
2021/08/31 00:21:03;;;;;;;2.28;2.08;;;15.70;73.20;;;15.37;59.41;94798.47;5056653;28;20244;-79
2021/08/31 00:23:30;;;;;;;2.28;2.08;;;15.80;73.50;;;15.37;59.03;94801.13;5066284;28;20283;-79
2021/08/31 00:25:57;;;;;;;2.10;2.00;;;15.70;73.50;;;15.33;59.36;94799.94;5072504;28;20242;-78
2021/08/31 00:28:24;;;;;;;1.80;1.65;;;15.60;73.30;;;15.32;58.74;94804.44;5056471;28;20301;-79
2021/08/31 00:30:52;;;;;;;2.17;1.80;;;15.60;73.30;;;15.29;60.32;94801.44;5073010;28;20220;-79
2021/08/31 00:33:19;;;;;;;1.98;1.88;;;15.60;73.40;;;15.30;59.14;94789.84;5036395;28;20229;-79
2021/08/31 00:35:47;;;;;;;1.88;1.77;;;15.60;73.50;;;15.30;59.54;94797.75;5067010;28;20221;-78
2021/08/31 00:38:14;;;;;;;1.70;1.60;;;15.60;73.60;;;15.28;59.82;94799.81;5072855;28;20201;-79
2021/08/31 00:40:41;;;;;;;2.08;1.98;;;15.60;73.80;;;15.29;59.47;94796.94;5056369;28;20215;-78
2021/08/31 00:43:09;;;;;;;1.80;1.70;;;15.60;73.70;;;15.29;59.66;94796.16;5055573;28;20226;-78
2021/08/31 00:45:36;;;;;;;2.20;2.00;;;15.50;73.70;;;15.30;59.35;94797.75;5072627;28;20313;-78
2021/08/31 00:48:04;;;;;;;1.70;1.60;;;15.60;73.80;;;15.30;59.83;94792.47;5072964;28;20228;-78
2021/08/31 00:50:31;;;;;;;2.20;1.90;;;15.50;73.80;;;15.27;59.46;94784.97;5056006;28;20749;-78
2021/08/31 00:52:59;;;;;;;2.83;1.60;;;15.60;73.90;;;15.31;59.89;94794.88;5054883;28;20346;-78
2021/08/31 00:55:26;;;;;;;1.73;1.63;;;15.50;73.90;;;15.31;59.58;94789.59;5055481;28;20589;-78
2021/08/31 00:57:53;;;;;;;1.77;1.67;;;15.60;74.10;;;15.31;60.01;94792.25;5072716;28;20269;-78
2021/08/31 01:00:21;;;;;;;1.80;1.63;;;15.50;74.10;;;15.32;60.05;94793.88;5055851;28;20213;-79
2021/08/31 01:02:48;;;;;;;2.33;1.70;;;15.50;74.00;;;15.33;59.84;94784.91;5068376;28;20233;-78
2021/08/31 01:05:16;;;;;;;1.65;1.55;;;15.60;74.10;;;15.32;59.94;94783.28;5072292;28;20222;-78
2021/08/31 01:07:44;;;;;;;1.70;1.60;;;15.60;74.20;;;15.32;59.57;94796.50;5055935;28;20203;-79
2021/08/31 01:10:14;;;;;;;1.55;1.45;;;15.50;73.90;;;15.32;60.09;94793.88;5071734;28;20226;-78
2021/08/31 01:12:44;;;;;;;2.10;1.80;;;15.60;74.30;;;15.31;59.96;94797.53;5072629;28;20199;-78
2021/08/31 01:15:14;;;;;;;1.60;1.50;;;15.60;74.30;;;15.30;59.98;94798.56;5051918;28;20227;-78
2021/08/31 01:17:41;;;;;;;1.75;1.65;;;15.60;74.40;;;15.28;60.10;94787.44;5056141;28;20504;-78
2021/08/31 01:20:10;;;;;;;1.90;1.77;;;15.60;74.50;;;15.28;60.47;94792.72;5071558;28;20236;-78
2021/08/31 01:22:37;;;;;;;1.60;1.50;;;15.50;74.40;;;15.29;60.13;94801.44;5054997;28;20274;-78
2021/08/31 01:25:07;;;;;;;1.67;1.58;;;15.50;74.40;;;15.32;60.29;94798.34;5071044;28;20292;-77
2021/08/31 01:27:35;;;;;;;2.10;1.90;;;15.50;74.50;;;15.32;60.54;94793.06;5069044;28;20205;-78
2021/08/31 01:30:04;;;;;;;2.63;1.80;;;15.60;74.60;;;15.32;60.10;94793.88;5069420;28;20562;-78
2021/08/31 01:32:31;;;;;;;1.67;1.58;;;15.50;74.50;;;15.36;60.28;94797.66;5070673;28;20620;-78
2021/08/31 01:34:58;;;;;;;1.90;1.80;;;15.60;74.60;;;15.35;60.88;94798.69;5054571;28;20214;-78
2021/08/31 01:37:25;;;;;;;1.90;1.80;;;15.60;74.80;;;15.34;60.78;94794.44;5038758;28;20202;-78
2021/08/31 01:39:52;;;;;;;2.85;1.75;;;15.60;74.70;;;15.38;60.54;94789.53;5054950;28;20657;-78
2021/08/31 01:42:20;;;;;;;1.92;1.83;;;15.60;74.70;;;15.36;60.16;94778.38;5087490;28;20203;-79
2021/08/31 01:44:47;;;;;;;1.80;1.70;;;15.60;74.60;;;15.42;60.26;94784.59;5052468;28;20201;-78
2021/08/31 01:47:14;;;;;;;1.90;1.80;;;15.60;74.60;;;15.44;60.70;94793.91;5052712;28;20293;-78
2021/08/31 01:49:41;;;;;;;1.95;1.85;;;15.60;74.70;;;15.46;60.69;94780.47;5052518;28;20187;-77
2021/08/31 01:52:08;;;;;;;1.92;1.80;;;15.60;74.80;;;15.49;60.16;94785.28;5066843;28;20219;-78
2021/08/31 01:54:36;;;;;;;3.28;1.90;;;15.60;74.70;;;15.49;60.10;94777.34;5068826;28;20217;-78
2021/08/31 01:57:03;;;;;;;1.77;1.67;;;15.70;74.70;;;15.50;59.63;94769.22;5069354;28;20246;-78
2021/08/31 01:59:30;;;;;;;2.10;2.00;;;15.70;74.60;;;15.49;59.84;94772.06;5069168;28;20665;-78
2021/08/31 02:01:57;;;;;;;1.67;1.58;;;15.70;74.60;;;15.48;60.46;94776.56;5059750;28;20250;-78
2021/08/31 02:04:25;;;;;;;3.50;1.88;;;15.80;74.70;;;15.45;60.21;94784.13;5072099;28;20277;-78
2021/08/31 02:06:52;;;;;;;2.42;1.92;;;15.70;74.70;;;15.44;60.11;94785.16;5067748;28;20227;-77
2021/08/31 02:09:19;;;;;;;2.72;1.60;;;15.70;74.60;;;15.40;60.19;94784.00;5053450;28;20191;-79
2021/08/31 02:11:46;;;;;;;2.33;1.75;;;15.70;74.60;;;15.36;59.94;94781.00;5070682;28;20329;-79
2021/08/31 02:14:13;;;;;;;1.70;1.58;;;15.60;74.50;;;15.30;60.23;94787.97;5067966;28;20210;-78
2021/08/31 02:16:41;;;;;;;2.10;1.85;;;15.60;74.50;;;15.31;60.39;94783.53;5054068;28;20302;-79
2021/08/31 02:19:08;;;;;;;1.95;1.83;;;15.60;74.60;;;15.27;60.43;94791.09;5053028;28;20221;-78
2021/08/31 02:21:35;;;;;;;2.13;1.92;;;15.60;74.60;;;15.24;60.61;94780.97;5053946;28;20242;-78
2021/08/31 02:24:04;;;;;;;2.40;2.20;;;15.60;74.70;;;15.19;61.24;94778.19;5037803;28;20264;-78
2021/08/31 02:26:33;;;;;;;2.13;1.92;;;15.50;74.90;;;15.16;61.78;94771.53;5078210;28;20676;-79
2021/08/31 02:29:00;;;;;;;1.98;1.80;;;15.60;75.20;;;15.13;61.91;94771.16;5070480;28;20198;-79
2021/08/31 02:31:27;;;;;;;1.88;1.77;;;15.50;75.20;;;15.13;61.27;94771.16;5053815;28;20245;-78
2021/08/31 02:33:55;;;;;;;1.60;1.50;;;15.50;75.20;;;15.12;61.65;94766.91;5051373;28;20225;-79
2021/08/31 02:36:24;;;;;;;2.20;2.00;;;15.40;75.20;;;15.10;61.25;94775.06;5069073;28;20215;-78
2021/08/31 02:38:51;;;;;;;3.05;1.92;;;15.50;75.20;;;15.09;61.60;94775.25;5053398;28;20186;-78
2021/08/31 02:41:19;;;;;;;2.85;1.88;;;15.40;75.30;;;15.09;61.62;94776.06;5069958;28;20681;-79
2021/08/31 02:43:47;;;;;;;3.20;2.42;;;15.40;75.40;;;15.07;61.83;94764.91;5052083;28;20198;-78
2021/08/31 02:46:14;;;;;;;2.22;2.10;;;15.40;75.50;;;15.07;61.74;94770.19;5068633;28;20252;-79
2021/08/31 02:48:44;;;;;;;2.33;2.08;;;15.40;75.50;;;15.02;61.25;94762.16;5053888;28;20544;-79
2021/08/31 02:51:11;;;;;;;2.40;2.20;;;15.40;75.50;;;15.07;61.87;94762.28;5070489;28;20276;-79
2021/08/31 02:53:38;;;;;;;2.50;1.90;;;15.30;75.60;;;15.09;61.98;94769.97;5068960;28;20221;-79
2021/08/31 02:56:06;;;;;;;2.20;2.00;;;15.30;75.80;;;15.09;61.83;94772.63;5069745;28;20343;-79
2021/08/31 02:58:33;;;;;;;3.08;2.00;;;15.30;75.90;;;15.14;61.67;94770.94;5080245;28;20203;-79
2021/08/31 03:01:29;;;;;;;7.57;2.00;;;15.40;76.00;;;15.18;61.73;94766.00;5052253;28;20219;-79
2021/08/31 03:03:58;;;;;;;2.08;1.88;;;15.40;76.10;;;15.20;62.12;94762.09;5055971;28;20198;-79
2021/08/31 03:06:27;;;;;;;2.20;2.00;;;15.50;76.30;;;15.26;61.69;94767.50;5052398;28;20218;-79
2021/08/31 03:08:55;;;;;;;2.65;2.00;;;15.40;76.20;;;15.27;62.02;94769.94;5048045;28;20237;-78
2021/08/31 03:11:22;;;;;;;2.50;2.30;;;15.40;76.20;;;15.27;62.60;94767.31;5070737;28;20207;-78
2021/08/31 03:13:50;;;;;;;2.10;1.90;;;15.60;76.40;;;15.27;62.49;94763.84;5037118;28;20223;-79
2021/08/31 03:16:17;;;;;;;2.30;2.10;;;15.50;76.50;;;15.29;62.16;94770.50;5036854;28;20660;-79
2021/08/31 03:18:44;;;;;;;2.38;2.17;;;15.50;76.40;;;15.28;63.00;94763.66;5056968;28;20229;-79
2021/08/31 03:21:11;;;;;;;2.53;2.10;;;15.50;76.50;;;15.29;62.33;94759.94;5074028;28;20232;-79
2021/08/31 03:23:39;;;;;;;3.05;2.28;;;15.50;77.20;;;15.29;62.57;94765.22;5053917;28;20661;-79
2021/08/31 03:26:06;;;;;;;2.38;2.17;;;15.50;76.50;;;15.27;62.14;94756.75;5032317;28;20277;-79
2021/08/31 03:28:33;;;;;;;2.60;2.40;;;15.50;76.40;;;15.24;62.00;94759.81;5054287;28;20309;-79
2021/08/31 03:31:01;;;;;;;2.17;1.98;;;15.50;76.20;;;15.19;62.24;94755.19;5040751;28;20210;-79
2021/08/31 03:33:28;;;;;;;2.15;2.05;;;15.50;76.20;;;15.16;62.38;94762.78;5057724;28;20222;-79
2021/08/31 03:35:55;;;;;;;2.30;2.10;;;15.40;76.20;;;15.09;62.55;94762.03;5056634;28;20218;-79
2021/08/31 03:38:23;;;;;;;2.45;2.25;;;15.40;76.20;;;15.07;62.54;94758.84;5057591;28;20203;-79
2021/08/31 03:40:51;;;;;;;3.15;2.60;;;15.50;76.20;;;15.02;63.15;94759.50;5073886;28;20221;-79
2021/08/31 03:43:18;;;;;;;2.60;2.40;;;15.50;76.50;;;15.02;62.99;94770.88;5057110;28;20283;-79
2021/08/31 03:45:46;;;;;;;2.60;2.40;;;15.40;76.50;;;15.01;62.58;94771.09;5053574;28;20693;-79
2021/08/31 03:48:13;;;;;;;2.75;2.55;;;15.30;77.30;;;15.00;62.96;94772.13;5037397;28;20221;-79
2021/08/31 03:50:42;;;;;;;2.55;2.35;;;15.30;76.60;;;15.01;62.64;94773.75;5062678;28;20207;-79
2021/08/31 03:53:09;;;;;;;2.58;2.33;;;15.30;77.50;;;14.98;62.87;94771.56;5073846;28;20229;-79
2021/08/31 03:55:36;;;;;;;2.35;2.20;;;15.40;76.80;;;15.02;62.68;94775.34;5053055;28;20234;-79
2021/08/31 03:58:07;;;;;;;2.80;2.60;;;15.40;76.80;;;15.02;63.02;94768.22;5053988;28;20649;-79
2021/08/31 04:00:35;;;;;;;2.58;2.38;;;15.30;76.90;;;15.07;62.99;94772.84;5044538;28;20765;-79
2021/08/31 04:03:03;;;;;;;3.03;2.83;;;15.30;77.00;;;15.07;63.57;94783.41;5040103;28;20191;-79
2021/08/31 04:05:30;;;;;;;2.70;2.50;;;15.30;77.30;;;15.08;63.11;94774.47;5056894;28;20262;-79
2021/08/31 04:07:57;;;;;;;3.00;2.70;;;15.40;77.20;;;15.11;63.12;94770.56;5073701;28;20195;-78
2021/08/31 04:10:25;;;;;;;2.58;2.38;;;15.30;77.10;;;15.11;63.03;94778.50;5056620;28;20219;-78
2021/08/31 04:12:52;;;;;;;3.10;2.80;;;15.40;77.20;;;15.12;63.37;94788.03;5036916;28;20222;-77
2021/08/31 04:15:19;;;;;;;4.03;2.83;;;15.40;77.30;;;15.12;63.62;94790.69;5056060;28;20721;-78
2021/08/31 04:17:47;;;;;;;3.00;2.80;;;15.40;77.40;;;15.12;63.25;94788.03;5073526;28;20210;-78
2021/08/31 04:20:14;;;;;;;3.28;2.97;;;15.40;77.30;;;15.12;63.79;94801.25;5072593;28;20258;-77
2021/08/31 04:22:41;;;;;;;3.33;3.03;;;15.40;77.40;;;15.08;63.78;94800.88;5056538;28;20667;-78
2021/08/31 04:25:09;;;;;;;3.33;3.00;;;15.50;77.60;;;15.13;63.65;94798.38;5052706;28;20250;-78
2021/08/31 04:27:36;;;;;;;2.95;2.72;;;15.40;77.60;;;15.17;63.33;94796.91;5064629;28;20290;-77
2021/08/31 04:30:04;;;;;;;3.05;2.80;;;15.40;77.50;;;15.21;63.30;94784.06;5049475;28;20231;-78
2021/08/31 04:32:31;;;;;;;3.42;2.90;;;15.40;77.50;;;15.23;63.51;94791.75;5056482;28;20189;-78
2021/08/31 04:35:02;;;;;;;3.30;3.00;;;15.40;77.60;;;15.26;62.93;94786.84;5062987;28;20226;-77
2021/08/31 04:37:30;;;;;;;3.92;3.63;;;15.50;77.60;;;15.27;64.06;94792.91;5056078;28;20202;-78
2021/08/31 04:39:59;;;;;;;3.90;3.50;;;15.40;77.90;;;15.28;63.95;94786.59;5073838;28;20571;-77
2021/08/31 04:42:27;;;;;;;3.72;3.38;;;15.40;78.00;;;15.29;63.88;94783.72;5056515;28;20187;-78
2021/08/31 04:44:54;;;;;;;3.47;3.17;;;15.50;77.80;;;15.35;63.37;94782.03;5071493;28;20191;-78
2021/08/31 04:47:21;;;;;;;4.05;3.65;;;15.50;77.80;;;15.34;63.67;94781.25;5071384;28;20186;-78
2021/08/31 04:49:49;;;;;;;4.30;3.90;;;15.60;78.00;;;15.34;64.29;94780.41;5056040;28;20301;-77
2021/08/31 04:52:16;;;;;;;4.05;3.67;;;15.50;78.10;;;15.36;63.92;94775.72;5072685;28;20222;-78
2021/08/31 04:54:43;;;;;;;5.03;4.10;;;15.70;78.10;;;15.37;64.08;94778.13;5085058;28;20261;-77
2021/08/31 04:57:10;;;;;;;4.03;3.65;;;15.60;78.00;;;15.41;64.24;94785.63;5069322;28;20618;-78
2021/08/31 04:59:39;;;;;;;4.40;4.00;;;15.60;78.30;;;15.38;63.71;94778.94;5068931;28;20668;-78
2021/08/31 05:02:06;;;;;;;4.10;3.78;;;15.60;78.00;;;15.46;64.10;94780.47;5052605;28;20195;-78
2021/08/31 05:04:34;;;;;;;3.92;3.63;;;15.70;78.10;;;15.50;63.79;94779.78;5057190;28;20199;-78
2021/08/31 05:07:10;;;;;;;4.35;3.95;;;15.70;78.10;;;15.57;64.07;94786.81;5068653;28;20253;-77
2021/08/31 05:09:42;;;;;;;5.25;4.00;;;15.70;78.40;;;15.57;63.89;94792.09;5036944;28;20199;-78
2021/08/31 05:12:10;;;;;;;4.47;4.07;;;15.80;78.60;;;15.63;64.05;94785.91;5078559;28;20248;-78
2021/08/31 05:14:37;;;;;;;4.38;3.97;;;15.70;78.50;;;15.64;63.80;94783.03;5055397;28;20218;-78
2021/08/31 05:17:05;;;;;;;4.00;3.60;;;15.80;78.30;;;15.67;64.01;94793.16;5035871;28;20505;-78
2021/08/31 05:19:32;;;;;;;3.65;3.35;;;15.80;78.20;;;15.69;63.67;94790.28;5079778;28;20198;-77
2021/08/31 05:22:01;;;;;;;3.97;3.65;;;15.90;78.20;;;15.78;63.90;94793.41;5071135;28;20565;-78
2021/08/31 05:24:29;;;;;;;4.50;4.10;;;16.00;78.20;;;15.79;63.92;94795.81;5055478;28;20376;-77
2021/08/31 05:26:57;;;;;;;5.22;3.90;;;15.90;78.20;;;15.82;63.48;94786.66;5055424;28;20310;-78
2021/08/31 05:29:24;;;;;;;4.00;3.70;;;15.90;78.20;;;15.86;63.44;94789.69;5055408;28;20223;-78
2021/08/31 05:31:52;;;;;;;3.88;3.58;;;16.00;78.10;;;15.89;63.37;94789.19;5054275;28;20692;-78
2021/08/31 05:34:20;;;;;;;3.80;3.50;;;16.00;78.10;;;15.90;63.57;94804.84;5055314;28;20218;-78
2021/08/31 05:36:47;;;;;;;3.60;3.30;;;16.10;78.00;;;15.94;63.16;94786.69;5071833;28;20692;-77
2021/08/31 05:39:15;;;;;;;4.22;3.72;;;16.10;78.00;;;15.90;63.27;94788.97;5068583;28;20187;-78
2021/08/31 05:41:42;;;;;;;4.63;4.22;;;16.10;77.90;;;15.94;63.30;94790.13;5043308;28;20645;-77
2021/08/31 05:44:09;;;;;;;4.53;3.60;;;16.10;78.00;;;15.94;63.62;94798.06;5069122;28;20285;-77
2021/08/31 05:46:36;;;;;;;4.30;3.90;;;16.10;77.90;;;15.94;63.67;94790.13;5069351;28;20210;-77
2021/08/31 05:49:04;;;;;;;4.15;3.70;;;16.10;78.00;;;15.98;63.34;94798.44;5068392;28;20195;-78
2021/08/31 05:51:31;;;;;;;3.92;3.53;;;16.10;77.90;;;15.99;63.48;94787.59;5069747;28;20317;-78
2021/08/31 05:53:58;;;;;;;3.95;3.50;;;16.20;78.00;;;16.03;63.49;94792.44;5036802;28;20199;-78
2021/08/31 05:56:25;;;;;;;4.20;3.78;;;16.20;77.90;;;16.00;63.61;94797.16;5053317;28;20312;-78
2021/08/31 05:58:52;;;;;;;4.00;3.60;;;16.30;77.90;;;15.96;63.49;94803.13;5056315;28;20282;-78
2021/08/31 06:01:19;;;;;;;4.10;3.67;;;16.20;77.80;;;15.86;63.55;94798.41;5046675;28;20847;-77
2021/08/31 06:03:48;;;;;;;3.72;3.40;;;16.20;77.90;;;15.77;63.41;94807.66;5054720;28;20193;-79
2021/08/31 06:06:16;;;;;;;3.65;3.35;;;16.10;77.80;;;15.68;64.19;94809.81;5071292;28;20658;-78
2021/08/31 06:08:44;;;;;;;3.92;3.55;;;16.10;78.10;;;15.61;63.88;94809.94;5071338;28;20198;-77
2021/08/31 06:11:16;;;;;;;3.65;3.35;;;16.00;78.00;;;15.54;64.21;94803.94;5055123;28;20254;-77
2021/08/31 06:13:43;;;;;;;4.70;3.83;;;15.90;78.10;;;15.50;64.29;94806.22;5071936;28;20186;-77
2021/08/31 06:16:10;;;;;;;3.72;3.40;;;15.90;78.20;;;15.46;64.92;94810.31;5071330;28;20234;-77
2021/08/31 06:18:37;;;;;;;4.30;3.90;;;15.90;78.50;;;15.39;65.47;94812.25;5054653;28;20249;-78
2021/08/31 06:21:04;;;;;;;4.00;3.55;;;15.80;78.70;;;15.42;65.26;94808.38;5054513;28;20216;-77
2021/08/31 06:23:32;;;;;;;4.28;3.88;;;15.80;78.70;;;15.43;65.07;94815.25;5054689;28;20653;-79
2021/08/31 06:25:59;;;;;;;4.43;3.88;;;15.80;78.70;;;15.43;65.82;94823.19;5054425;28;20217;-78
2021/08/31 06:28:26;;;;;;;4.00;3.60;;;15.70;78.70;;;15.43;65.26;94813.44;5054451;28;20202;-78
2021/08/31 06:30:53;;;;;;;4.03;3.67;;;15.70;78.90;;;15.36;65.41;94805.59;5054653;28;20211;-77
2021/08/31 06:33:20;;;;;;;4.22;3.70;;;15.70;79.00;;;15.44;65.46;94816.88;5054427;28;20297;-78
2021/08/31 06:35:48;;;;;;;3.85;3.50;;;15.60;79.00;;;15.44;65.97;94814.22;5070840;28;20226;-78
2021/08/31 06:38:17;;;;;;;4.05;3.67;;;15.70;79.20;;;15.45;65.23;94815.84;5054694;28;20194;-78
2021/08/31 06:40:45;;;;;;;4.15;3.50;;;15.70;79.30;;;15.47;65.14;94827.81;5071213;28;20305;-78
2021/08/31 06:43:12;;;;;;;4.13;3.70;;;15.70;79.20;;;15.45;66.06;94815.84;5071181;28;20230;-79
2021/08/31 06:45:39;;;;;;;5.00;4.50;;;15.70;79.40;;;15.40;66.00;94813.88;5070862;28;20213;-80
2021/08/31 06:48:07;;;;;;;4.55;3.72;;;15.70;79.60;;;15.44;65.97;94814.22;5054320;28;20199;-78
2021/08/31 06:50:34;;;;;;;4.50;4.03;;;15.70;79.60;;;15.47;66.03;94814.59;5054274;28;20216;-78
2021/08/31 06:53:01;;;;;;;4.47;4.07;;;15.70;80.50;;;15.44;66.66;94822.97;5056885;28;20289;-79
2021/08/31 06:55:29;;;;;;;4.60;4.20;;;15.70;79.90;;;15.40;66.34;94813.88;5058161;28;20233;-79
2021/08/31 06:57:57;;;;;;;4.32;3.38;;;15.70;80.00;;;15.45;66.04;94819.31;5058331;28;20619;-78
2021/08/31 07:00:24;;;;;;;3.78;3.47;;;15.70;80.70;;;15.46;66.53;94820.09;5074980;28;20222;-80
2021/08/31 07:02:52;;;;;;;3.70;3.40;;;15.70;80.00;;;15.45;66.10;94818.50;5058418;28;20202;-78
2021/08/31 07:05:19;;;;;;;4.13;3.53;;;15.80;80.00;;;15.47;66.66;94827.00;5074645;28;20229;-79
2021/08/31 07:07:46;;;;;;;3.90;3.60;;;15.80;80.20;;;15.45;66.87;94827.25;5075052;28;20284;-79
2021/08/31 07:10:13;;;;;;;4.40;4.00;;;15.70;81.10;;;15.46;67.50;94834.13;5074767;28;20211;-78
2021/08/31 07:12:41;;;;;;;3.78;3.47;;;15.70;80.50;;;15.48;67.30;94824.13;5058269;28;20213;-79
2021/08/31 07:15:09;;;;;;;4.00;3.70;;;15.70;80.50;;;15.50;67.26;94827.38;5057979;28;20309;-79
2021/08/31 07:17:36;;;;;;;4.03;3.63;;;15.80;80.90;;;15.55;67.07;94837.28;5074822;28;20289;-79
2021/08/31 07:20:05;;;;;;;4.00;3.60;;;15.80;80.90;;;15.60;67.38;94840.03;5057846;28;20703;-79
2021/08/31 07:22:33;;;;;;;3.63;3.30;;;15.80;81.10;;;15.63;67.50;94844.88;5074597;28;20244;-79
2021/08/31 07:25:00;;;;;;;4.25;3.75;;;15.80;81.10;;;15.64;67.46;94840.41;5075600;28;20215;-79
2021/08/31 07:27:27;;;;;;;4.30;3.60;;;15.80;81.10;;;15.67;67.77;94847.88;5057714;28;20227;-79
2021/08/31 07:29:55;;;;;;;3.72;3.42;;;15.90;81.40;;;15.70;67.69;94844.78;5057760;28;20226;-78
2021/08/31 07:32:22;;;;;;;3.50;3.20;;;15.90;81.40;;;15.68;68.03;94842.38;5058119;28;20282;-77
2021/08/31 07:34:49;;;;;;;2.75;2.47;;;15.90;81.50;;;15.69;67.96;94851.91;5074101;28;20229;-78
2021/08/31 07:37:17;;;;;;;2.90;2.70;;;15.90;81.40;;;15.71;67.43;94851.69;5057828;28;20195;-78
2021/08/31 07:39:44;;;;;;;2.90;2.60;;;15.90;81.40;;;15.74;67.29;94861.81;5073917;28;20396;-78
2021/08/31 07:42:12;;;;;;;2.72;2.53;;;16.00;81.50;;;15.77;67.64;94858.72;5074315;28;20284;-77
2021/08/31 07:44:39;;;;;;;2.53;2.33;;;16.00;81.50;;;15.81;67.29;94859.09;5057460;28;20460;-79
2021/08/31 07:47:06;;;;;;;3.20;2.08;;;16.00;81.50;;;15.84;67.38;94861.28;5074068;28;20225;-77
2021/08/31 07:49:34;;;;;;;3.35;2.10;;;16.00;81.60;;;15.83;67.11;94859.66;5057597;28;20201;-78
2021/08/31 07:52:02;;;;;;;2.97;1.98;;;16.10;81.70;;;15.87;67.22;94878.53;5073919;28;20214;-78
2021/08/31 07:54:30;;;;;;;2.00;1.90;;;16.10;81.80;;;15.86;67.74;94875.09;5057183;28;20197;-78
2021/08/31 07:56:58;;;;;;;2.70;2.10;;;16.10;81.90;;;15.87;67.60;94879.38;5057374;28;20309;-78
2021/08/31 07:59:25;;;;;;;2.38;2.17;;;16.10;81.90;;;15.89;67.61;94877.28;5057136;28;20247;-79
2021/08/31 08:01:52;;;;;;;2.20;2.00;;;16.10;82.00;;;15.92;67.66;94878.69;5073739;28;20250;-78
2021/08/31 08:04:19;;;;;;;2.03;1.92;;;16.10;82.10;;;15.92;67.55;94879.50;5056064;28;20289;-78
2021/08/31 08:06:47;;;;;;;1.95;1.85;;;16.10;82.10;;;15.97;67.46;94882.25;5057271;28;20821;-78
2021/08/31 08:09:14;;;;;;;2.30;2.10;;;16.10;82.20;;;15.98;67.60;94883.88;5073638;28;20584;-78
2021/08/31 08:11:41;;;;;;;2.22;2.03;;;16.10;82.30;;;16.02;67.89;94886.88;5073558;28;20668;-79
2021/08/31 08:14:08;;;;;;;2.42;2.20;;;16.20;82.50;;;16.07;67.55;94899.44;5073547;28;20186;-79
2021/08/31 08:16:36;;;;;;;2.92;2.63;;;16.30;82.60;;;16.08;67.53;94890.47;5056793;28;20223;-79
2021/08/31 08:19:03;;;;;;;3.63;3.17;;;16.20;82.40;;;16.09;67.67;94898.16;5073304;28;20201;-79
2021/08/31 08:21:30;;;;;;;4.07;3.45;;;16.20;82.30;;;16.10;68.02;94899.78;5056787;28;20708;-78
2021/08/31 08:23:57;;;;;;;3.95;3.55;;;16.30;82.40;;;16.10;67.92;94906.91;5056658;28;20194;-79
2021/08/31 08:26:24;;;;;;;3.88;3.45;;;16.30;82.30;;;16.09;67.67;94905.31;5056582;28;20233;-77
2021/08/31 08:28:51;;;;;;;4.70;4.20;;;16.30;82.20;;;16.11;67.80;94909.34;5056546;28;20194;-79
2021/08/31 08:31:19;;;;;;;5.80;4.25;;;16.30;83.00;;;16.12;67.74;94908.28;5056636;28;20314;-78
2021/08/31 08:33:46;;;;;;;6.10;4.43;;;16.30;82.30;;;16.16;67.39;94919.22;5056568;28;20671;-79
2021/08/31 08:36:15;;;;;;;5.63;5.03;;;16.30;82.40;;;16.22;67.94;94922.81;5072980;28;20680;-78
2021/08/31 08:38:42;;;;;;;5.70;5.10;;;16.40;82.50;;;16.29;67.84;94929.59;5056763;28;20301;-77
2021/08/31 08:41:09;;;;;;;6.95;5.55;;;16.50;82.70;;;16.32;67.88;94920.44;5073021;28;20633;-78
2021/08/31 08:43:37;;;;;;;6.10;5.50;;;16.50;82.70;;;16.43;67.76;94934.69;5072940;28;20282;-78
2021/08/31 08:46:06;;;;;;;6.22;5.57;;;16.50;82.80;;;16.51;67.50;94938.88;5055351;28;20222;-79
2021/08/31 08:48:34;;;;;;;6.65;5.95;;;16.60;82.90;;;16.49;67.05;94933.81;5035721;28;20192;-79
2021/08/31 08:51:04;;;;;;;6.85;6.15;;;16.60;82.50;;;16.53;67.53;94939.44;5072651;28;20556;-79
2021/08/31 08:53:34;;;;;;;7.15;6.28;;;16.70;82.40;;;16.52;67.43;94943.13;5056130;28;20293;-78
2021/08/31 08:56:02;;;;;;;7.95;6.50;;;16.70;82.30;;;16.58;67.44;94944.88;5056008;28;20226;-78
2021/08/31 08:58:30;;;;;;;8.02;6.78;;;16.70;82.40;;;16.67;67.42;94955.94;5039058;28;20195;-78
2021/08/31 09:01:02;;;;;;;7.95;7.15;;;16.80;82.50;;;16.72;67.70;94948.09;5072523;28;20646;-78
2021/08/31 09:03:35;;;;;;;8.80;7.22;;;16.80;82.50;;;16.81;67.49;94947.53;5072438;28;20186;-77
2021/08/31 09:06:17;;;;;;;9.10;7.40;;;16.90;82.40;;;16.86;67.25;94946.84;5071668;28;20279;-79
2021/08/31 09:09:11;;;;;;;8.23;7.25;;;17.00;82.20;;;16.87;67.50;94951.09;5072466;28;20236;-78
2021/08/31 09:11:47;;;;;;;9.55;7.80;;;17.00;81.90;;;16.94;67.64;94948.34;5055762;28;20242;-78
2021/08/31 09:14:30;;;;;;;8.82;7.03;;;17.10;82.10;;;17.04;67.20;94943.28;5056128;28;20222;-79
2021/08/31 09:17:02;;;;;;;8.50;7.22;;;17.20;82.10;;;17.18;67.35;94945.72;5039107;28;20234;-78
2021/08/31 09:19:38;;;;;;;7.70;6.75;;;17.20;82.20;;;17.25;66.61;94957.00;5071635;28;20229;-79
2021/08/31 09:22:21;;;;;;;7.68;6.63;;;17.30;81.90;;;17.25;66.29;94952.50;5072497;28;20255;-79
2021/08/31 09:25:11;;;;;;;8.02;6.50;;;17.30;81.40;;;17.22;66.11;94952.97;5071497;28;20634;-78
2021/08/31 09:27:46;;;;;;;8.32;6.95;;;17.40;81.10;;;17.18;66.55;94948.34;5056432;28;20252;-78
2021/08/31 09:30:30;;;;;;;7.50;6.25;;;17.40;81.20;;;17.20;66.49;94960.34;5055071;28;20275;-78
2021/08/31 09:33:01;;;;;;;7.22;6.50;;;17.40;81.20;;;17.21;66.65;94955.81;5055258;28;20186;-79
2021/08/31 09:35:31;;;;;;;7.10;6.10;;;17.40;81.00;;;17.20;66.13;94959.50;5071851;28;20284;-79
2021/08/31 09:38:04;;;;;;;6.80;6.03;;;17.40;80.90;;;17.18;66.00;94964.25;5052133;28;20274;-78
2021/08/31 09:40:51;;;;;;;8.25;6.03;;;17.40;80.80;;;17.18;66.12;94966.91;5048035;28;20244;-78
2021/08/31 09:43:25;;;;;;;6.63;5.93;;;17.40;80.80;;;17.19;66.04;94964.03;5052977;28;20285;-77
2021/08/31 09:45:55;;;;;;;7.57;6.35;;;17.40;80.80;;;17.20;66.30;94976.25;5061678;28;20301;-77
2021/08/31 09:48:23;;;;;;;7.68;5.90;;;17.40;80.70;;;17.17;66.21;94968.75;5068931;28;20191;-79
2021/08/31 09:50:55;;;;;;;7.43;6.18;;;17.40;80.60;;;17.17;65.79;94967.94;5044085;28;20225;-80
2021/08/31 09:53:28;;;;;;;6.38;5.68;;;17.40;80.70;;;17.20;65.57;94976.25;5040239;28;20707;-79
2021/08/31 09:56:01;;;;;;;6.78;5.78;;;17.30;80.60;;;17.31;65.89;94987.06;5051162;28;20233;-80
2021/08/31 09:58:40;;;;;;;8.00;6.05;;;17.30;81.20;;;17.42;66.50;94986.25;5059183;28;20286;-79
2021/08/31 10:01:09;;;;;;;7.32;6.32;;;17.40;81.60;;;17.52;65.81;94990.97;5022219;28;20255;-79
2021/08/31 10:03:39;;;;;;;7.28;6.45;;;17.50;81.60;;;17.58;66.21;94990.03;5068951;28;20187;-80
2021/08/31 10:06:06;;;;;;;6.43;5.65;;;17.50;81.40;;;17.59;65.47;94995.09;5065893;28;20239;-79
2021/08/31 10:08:38;;;;;;;7.30;6.05;;;17.60;81.10;;;17.56;65.63;94990.25;5052336;28;20660;-78
2021/08/31 10:11:07;;;;;;;7.80;5.97;;;17.50;80.70;;;17.51;65.42;94995.44;5052453;28;20219;-79
2021/08/31 10:13:38;;;;;;;7.18;6.47;;;17.70;80.50;;;17.49;65.19;95004.66;5068908;28;20652;-78
2021/08/31 10:16:06;;;;;;;7.57;5.93;;;17.60;80.00;;;17.43;65.36;95003.75;5058669;28;20257;-78
2021/08/31 10:18:33;;;;;;;7.13;6.43;;;17.60;80.10;;;17.38;65.30;95001.81;5050135;28;20191;-77
2021/08/31 10:21:08;;;;;;;6.60;5.90;;;17.60;80.00;;;17.37;65.72;95000.19;5050419;28;20297;-78
2021/08/31 10:23:43;;;;;;;6.72;6.03;;;17.60;80.00;;;17.40;65.68;95002.38;5067975;28;20182;-77
2021/08/31 10:26:31;;;;;;;7.28;6.03;;;17.60;80.50;;;17.47;65.40;95002.25;5047260;28;20265;-78